sensor_id;sensor_type;location;lat;lon;timestamp;temperature;humidity
20081;DHT22;10200;49.232;9.222;2023-02-15T00:01:10;2.90;99.90
20081;DHT22;10200;49.232;9.222;2023-02-15T00:03:36;2.90;99.90
20081;DHT22;10200;49.232;9.222;2023-02-15T00:06:03;2.90;99.90
20081;DHT22;10200;49.232;9.222;2023-02-15T00:08:29;2.80;99.90
20081;DHT22;10200;49.232;9.222;2023-02-15T00:11:08;2.80;99.90
20081;DHT22;10200;49.232;9.222;2023-02-15T00:13:34;2.70;99.90
20081;DHT22;10200;49.232;9.222;2023-02-15T00:16:02;2.70;99.90
20081;DHT22;10200;49.232;9.222;2023-02-15T00:18:29;2.70;99.90
20081;DHT22;10200;49.232;9.222;2023-02-15T00:20:54;2.70;99.90
20081;DHT22;10200;49.232;9.222;2023-02-15T00:23:20;2.70;99.90
20081;DHT22;10200;49.232;9.222;2023-02-15T00:25:46;2.70;99.90
20081;DHT22;10200;49.232;9.222;2023-02-15T00:28:11;2.70;99.90
20081;DHT22;10200;49.232;9.222;2023-02-15T00:30:37;2.60;99.90
20081;DHT22;10200;49.232;9.222;2023-02-15T00:33:03;2.60;99.90
20081;DHT22;10200;49.232;9.222;2023-02-15T00:35:28;2.60;99.90
20081;DHT22;10200;49.232;9.222;2023-02-15T00:37:54;2.60;99.90
20081;DHT22;10200;49.232;9.222;2023-02-15T00:40:20;2.60;99.90
20081;DHT22;10200;49.232;9.222;2023-02-15T00:42:46;2.50;99.90
20081;DHT22;10200;49.232;9.222;2023-02-15T00:45:12;2.60;99.90
20081;DHT22;10200;49.232;9.222;2023-02-15T00:47:37;2.60;99.90
20081;DHT22;10200;49.232;9.222;2023-02-15T00:50:03;2.70;99.90
20081;DHT22;10200;49.232;9.222;2023-02-15T00:52:29;2.70;99.90
20081;DHT22;10200;49.232;9.222;2023-02-15T00:54:54;3.10;99.90
20081;DHT22;10200;49.232;9.222;2023-02-15T00:57:20;2.70;99.90
20081;DHT22;10200;49.232;9.222;2023-02-15T00:59:45;2.60;99.90
20081;DHT22;10200;49.232;9.222;2023-02-15T01:02:11;2.60;99.90
20081;DHT22;10200;49.232;9.222;2023-02-15T01:04:37;2.90;99.90
20081;DHT22;10200;49.232;9.222;2023-02-15T01:07:02;2.50;99.90
20081;DHT22;10200;49.232;9.222;2023-02-15T01:09:29;2.50;99.90
20081;DHT22;10200;49.232;9.222;2023-02-15T01:14:20;2.50;99.90
20081;DHT22;10200;49.232;9.222;2023-02-15T01:16:46;2.50;99.90
20081;DHT22;10200;49.232;9.222;2023-02-15T01:19:12;2.40;99.90
20081;DHT22;10200;49.232;9.222;2023-02-15T01:21:38;2.40;99.90
20081;DHT22;10200;49.232;9.222;2023-02-15T01:24:13;2.40;99.90
20081;DHT22;10200;49.232;9.222;2023-02-15T01:26:39;2.30;99.90
20081;DHT22;10200;49.232;9.222;2023-02-15T01:29:05;2.30;99.90
20081;DHT22;10200;49.232;9.222;2023-02-15T01:31:30;2.20;99.90
20081;DHT22;10200;49.232;9.222;2023-02-15T01:33:56;2.30;99.90
20081;DHT22;10200;49.232;9.222;2023-02-15T01:38:48;2.70;99.90
20081;DHT22;10200;49.232;9.222;2023-02-15T01:41:14;2.30;99.90
20081;DHT22;10200;49.232;9.222;2023-02-15T01:43:59;2.30;99.90
20081;DHT22;10200;49.232;9.222;2023-02-15T01:46:35;2.20;99.90
20081;DHT22;10200;49.232;9.222;2023-02-15T01:49:10;2.20;99.90
20081;DHT22;10200;49.232;9.222;2023-02-15T01:51:36;2.20;99.90
20081;DHT22;10200;49.232;9.222;2023-02-15T01:54:18;2.30;99.90
20081;DHT22;10200;49.232;9.222;2023-02-15T01:56:47;2.20;99.90
20081;DHT22;10200;49.232;9.222;2023-02-15T01:59:16;2.20;99.90
20081;DHT22;10200;49.232;9.222;2023-02-15T02:01:42;2.20;99.90
20081;DHT22;10200;49.232;9.222;2023-02-15T02:04:15;2.10;99.90
20081;DHT22;10200;49.232;9.222;2023-02-15T02:06:44;2.10;99.90
20081;DHT22;10200;49.232;9.222;2023-02-15T02:09:11;2.10;99.90
20081;DHT22;10200;49.232;9.222;2023-02-15T02:11:39;2.00;99.90
20081;DHT22;10200;49.232;9.222;2023-02-15T02:14:05;2.00;99.90
20081;DHT22;10200;49.232;9.222;2023-02-15T02:36:19;2.00;99.90
20081;DHT22;10200;49.232;9.222;2023-02-15T02:44:17;2.00;99.90
20081;DHT22;10200;49.232;9.222;2023-02-15T02:49:40;1.90;99.90
20081;DHT22;10200;49.232;9.222;2023-02-15T02:57:45;1.90;99.90
20081;DHT22;10200;49.232;9.222;2023-02-15T03:00:13;1.90;99.90
20081;DHT22;10200;49.232;9.222;2023-02-15T03:02:42;1.90;99.90
20081;DHT22;10200;49.232;9.222;2023-02-15T03:05:14;2.00;99.90
20081;DHT22;10200;49.232;9.222;2023-02-15T03:07:42;1.90;99.90
20081;DHT22;10200;49.232;9.222;2023-02-15T03:10:08;1.70;99.90
20081;DHT22;10200;49.232;9.222;2023-02-15T03:12:37;1.70;99.90
20081;DHT22;10200;49.232;9.222;2023-02-15T03:15:14;1.70;99.90
20081;DHT22;10200;49.232;9.222;2023-02-15T03:17:45;1.60;99.90
20081;DHT22;10200;49.232;9.222;2023-02-15T03:20:19;1.60;99.90
20081;DHT22;10200;49.232;9.222;2023-02-15T03:22:55;1.70;99.90
20081;DHT22;10200;49.232;9.222;2023-02-15T03:25:28;1.60;99.90
20081;DHT22;10200;49.232;9.222;2023-02-15T03:28:02;1.50;99.90
20081;DHT22;10200;49.232;9.222;2023-02-15T03:30:29;1.50;99.90
20081;DHT22;10200;49.232;9.222;2023-02-15T03:32:58;1.50;99.90
20081;DHT22;10200;49.232;9.222;2023-02-15T03:35:26;1.50;99.90
20081;DHT22;10200;49.232;9.222;2023-02-15T03:37:59;1.50;99.90
20081;DHT22;10200;49.232;9.222;2023-02-15T03:40:26;1.50;99.90
20081;DHT22;10200;49.232;9.222;2023-02-15T03:49:04;1.50;99.90
20081;DHT22;10200;49.232;9.222;2023-02-15T03:51:35;1.50;99.90
20081;DHT22;10200;49.232;9.222;2023-02-15T03:54:16;1.50;99.90
20081;DHT22;10200;49.232;9.222;2023-02-15T03:57:03;1.50;99.90
20081;DHT22;10200;49.232;9.222;2023-02-15T03:59:48;1.50;99.90
20081;DHT22;10200;49.232;9.222;2023-02-15T04:02:40;1.50;99.90
20081;DHT22;10200;49.232;9.222;2023-02-15T04:05:07;1.60;99.90
20081;DHT22;10200;49.232;9.222;2023-02-15T04:07:33;1.60;99.90
20081;DHT22;10200;49.232;9.222;2023-02-15T04:09:58;1.60;99.90
20081;DHT22;10200;49.232;9.222;2023-02-15T04:12:43;1.60;99.90
20081;DHT22;10200;49.232;9.222;2023-02-15T04:15:12;1.50;99.90
20081;DHT22;10200;49.232;9.222;2023-02-15T04:17:56;1.50;99.90
20081;DHT22;10200;49.232;9.222;2023-02-15T04:20:22;1.50;99.90
20081;DHT22;10200;49.232;9.222;2023-02-15T04:23:06;1.50;99.90
20081;DHT22;10200;49.232;9.222;2023-02-15T04:25:52;1.50;99.90
20081;DHT22;10200;49.232;9.222;2023-02-15T04:28:17;1.50;99.90
20081;DHT22;10200;49.232;9.222;2023-02-15T04:30:43;1.50;99.90
20081;DHT22;10200;49.232;9.222;2023-02-15T04:33:08;1.50;99.90
20081;DHT22;10200;49.232;9.222;2023-02-15T04:35:34;1.50;99.90
20081;DHT22;10200;49.232;9.222;2023-02-15T04:38:00;1.50;99.90
20081;DHT22;10200;49.232;9.222;2023-02-15T04:40:25;1.40;99.90
20081;DHT22;10200;49.232;9.222;2023-02-15T04:42:51;1.40;99.90
20081;DHT22;10200;49.232;9.222;2023-02-15T04:45:17;1.50;99.90
20081;DHT22;10200;49.232;9.222;2023-02-15T04:47:43;1.40;99.90
20081;DHT22;10200;49.232;9.222;2023-02-15T04:50:09;1.50;99.90
20081;DHT22;10200;49.232;9.222;2023-02-15T04:52:35;1.40;99.90
20081;DHT22;10200;49.232;9.222;2023-02-15T04:55:00;1.50;99.90
20081;DHT22;10200;49.232;9.222;2023-02-15T04:57:26;1.50;99.90
20081;DHT22;10200;49.232;9.222;2023-02-15T04:59:52;1.50;99.90
20081;DHT22;10200;49.232;9.222;2023-02-15T05:02:17;1.50;99.90
20081;DHT22;10200;49.232;9.222;2023-02-15T05:04:43;1.50;99.90
20081;DHT22;10200;49.232;9.222;2023-02-15T05:07:08;1.40;99.90
20081;DHT22;10200;49.232;9.222;2023-02-15T05:09:34;1.40;99.90
20081;DHT22;10200;49.232;9.222;2023-02-15T05:12:00;1.40;99.90
20081;DHT22;10200;49.232;9.222;2023-02-15T05:14:25;1.40;99.90
20081;DHT22;10200;49.232;9.222;2023-02-15T05:16:51;1.40;99.90
20081;DHT22;10200;49.232;9.222;2023-02-15T05:19:16;1.40;99.90
20081;DHT22;10200;49.232;9.222;2023-02-15T05:21:42;1.40;99.90
20081;DHT22;10200;49.232;9.222;2023-02-15T05:24:08;1.40;99.90
20081;DHT22;10200;49.232;9.222;2023-02-15T05:26:52;1.40;99.90
20081;DHT22;10200;49.232;9.222;2023-02-15T05:29:43;1.50;99.90
20081;DHT22;10200;49.232;9.222;2023-02-15T05:32:09;1.50;99.90
20081;DHT22;10200;49.232;9.222;2023-02-15T05:34:35;1.50;99.90
20081;DHT22;10200;49.232;9.222;2023-02-15T05:37:01;1.50;99.90
20081;DHT22;10200;49.232;9.222;2023-02-15T05:39:26;1.50;99.90
20081;DHT22;10200;49.232;9.222;2023-02-15T05:41:52;1.50;99.90
20081;DHT22;10200;49.232;9.222;2023-02-15T05:44:17;1.50;99.90
20081;DHT22;10200;49.232;9.222;2023-02-15T05:46:43;1.40;99.90
20081;DHT22;10200;49.232;9.222;2023-02-15T05:49:09;1.40;99.90
20081;DHT22;10200;49.232;9.222;2023-02-15T05:51:34;1.40;99.90
20081;DHT22;10200;49.232;9.222;2023-02-15T05:54:00;1.30;99.90
20081;DHT22;10200;49.232;9.222;2023-02-15T05:56:25;1.30;99.90
20081;DHT22;10200;49.232;9.222;2023-02-15T05:58:52;1.30;99.90
20081;DHT22;10200;49.232;9.222;2023-02-15T06:01:18;1.30;99.90
20081;DHT22;10200;49.232;9.222;2023-02-15T06:03:46;1.30;99.90
20081;DHT22;10200;49.232;9.222;2023-02-15T06:06:12;1.30;99.90
20081;DHT22;10200;49.232;9.222;2023-02-15T06:08:38;1.30;99.90
20081;DHT22;10200;49.232;9.222;2023-02-15T06:11:04;1.20;99.90
20081;DHT22;10200;49.232;9.222;2023-02-15T06:13:29;1.30;99.90
20081;DHT22;10200;49.232;9.222;2023-02-15T06:15:55;1.30;99.90
20081;DHT22;10200;49.232;9.222;2023-02-15T06:18:21;1.20;99.90
20081;DHT22;10200;49.232;9.222;2023-02-15T06:20:47;1.30;99.90
20081;DHT22;10200;49.232;9.222;2023-02-15T06:23:13;1.30;99.90
20081;DHT22;10200;49.232;9.222;2023-02-15T06:25:38;1.30;99.90
20081;DHT22;10200;49.232;9.222;2023-02-15T06:28:04;1.30;99.90
20081;DHT22;10200;49.232;9.222;2023-02-15T06:30:30;1.30;99.90
20081;DHT22;10200;49.232;9.222;2023-02-15T06:32:56;1.30;99.90
20081;DHT22;10200;49.232;9.222;2023-02-15T06:35:21;1.30;99.90
20081;DHT22;10200;49.232;9.222;2023-02-15T06:37:47;1.30;99.90
20081;DHT22;10200;49.232;9.222;2023-02-15T06:40:14;1.30;99.90
20081;DHT22;10200;49.232;9.222;2023-02-15T06:42:41;1.30;99.90
20081;DHT22;10200;49.232;9.222;2023-02-15T06:45:07;1.30;99.90
20081;DHT22;10200;49.232;9.222;2023-02-15T06:47:33;1.30;99.90
20081;DHT22;10200;49.232;9.222;2023-02-15T06:49:58;1.30;99.90
20081;DHT22;10200;49.232;9.222;2023-02-15T06:52:24;1.30;99.90
20081;DHT22;10200;49.232;9.222;2023-02-15T06:54:50;1.30;99.90
20081;DHT22;10200;49.232;9.222;2023-02-15T06:57:16;1.20;99.90
20081;DHT22;10200;49.232;9.222;2023-02-15T06:59:41;1.30;99.90
20081;DHT22;10200;49.232;9.222;2023-02-15T07:02:10;1.20;99.90
20081;DHT22;10200;49.232;9.222;2023-02-15T07:04:36;1.30;99.90
20081;DHT22;10200;49.232;9.222;2023-02-15T07:07:02;1.20;99.90
20081;DHT22;10200;49.232;9.222;2023-02-15T07:09:27;1.20;99.90
20081;DHT22;10200;49.232;9.222;2023-02-15T07:11:53;1.20;99.90
20081;DHT22;10200;49.232;9.222;2023-02-15T07:14:37;1.30;99.90
20081;DHT22;10200;49.232;9.222;2023-02-15T07:17:02;1.30;99.90
20081;DHT22;10200;49.232;9.222;2023-02-15T07:19:28;1.30;99.90
20081;DHT22;10200;49.232;9.222;2023-02-15T07:21:54;1.30;99.90
20081;DHT22;10200;49.232;9.222;2023-02-15T07:24:19;1.30;99.90
20081;DHT22;10200;49.232;9.222;2023-02-15T07:26:45;1.40;99.90
20081;DHT22;10200;49.232;9.222;2023-02-15T07:29:10;1.40;99.90
20081;DHT22;10200;49.232;9.222;2023-02-15T07:31:36;1.40;99.90
20081;DHT22;10200;49.232;9.222;2023-02-15T07:34:01;1.50;99.90
20081;DHT22;10200;49.232;9.222;2023-02-15T07:36:27;1.40;99.90
20081;DHT22;10200;49.232;9.222;2023-02-15T07:38:52;1.40;99.90
20081;DHT22;10200;49.232;9.222;2023-02-15T07:41:18;1.50;99.90
20081;DHT22;10200;49.232;9.222;2023-02-15T07:43:44;1.50;99.90
20081;DHT22;10200;49.232;9.222;2023-02-15T07:46:13;1.50;99.90
20081;DHT22;10200;49.232;9.222;2023-02-15T07:48:41;1.50;99.90
20081;DHT22;10200;49.232;9.222;2023-02-15T07:51:08;1.50;99.90
20081;DHT22;10200;49.232;9.222;2023-02-15T07:53:35;1.50;99.90
20081;DHT22;10200;49.232;9.222;2023-02-15T07:56:07;1.50;99.90
20081;DHT22;10200;49.232;9.222;2023-02-15T07:58:33;1.40;99.90
20081;DHT22;10200;49.232;9.222;2023-02-15T08:01:22;1.40;99.90
20081;DHT22;10200;49.232;9.222;2023-02-15T08:03:48;1.40;99.90
20081;DHT22;10200;49.232;9.222;2023-02-15T08:06:14;1.50;99.90
20081;DHT22;10200;49.232;9.222;2023-02-15T08:08:40;1.50;99.90
20081;DHT22;10200;49.232;9.222;2023-02-15T08:18:57;1.70;99.90
20081;DHT22;10200;49.232;9.222;2023-02-15T08:21:25;1.60;99.90
20081;DHT22;10200;49.232;9.222;2023-02-15T08:23:51;1.70;99.90
20081;DHT22;10200;49.232;9.222;2023-02-15T08:26:16;1.80;99.90
20081;DHT22;10200;49.232;9.222;2023-02-15T08:28:43;1.80;99.90
20081;DHT22;10200;49.232;9.222;2023-02-15T08:31:11;1.90;99.90
20081;DHT22;10200;49.232;9.222;2023-02-15T08:33:38;1.90;99.90
20081;DHT22;10200;49.232;9.222;2023-02-15T08:36:13;1.90;99.90
20081;DHT22;10200;49.232;9.222;2023-02-15T08:38:39;1.80;99.90
20081;DHT22;10200;49.232;9.222;2023-02-15T08:43:46;1.90;99.90
20081;DHT22;10200;49.232;9.222;2023-02-15T08:46:13;1.90;99.90
20081;DHT22;10200;49.232;9.222;2023-02-15T08:48:39;2.00;99.90
20081;DHT22;10200;49.232;9.222;2023-02-15T08:51:13;2.00;99.90
20081;DHT22;10200;49.232;9.222;2023-02-15T08:53:40;2.00;99.90
20081;DHT22;10200;49.232;9.222;2023-02-15T08:56:07;2.00;99.90
20081;DHT22;10200;49.232;9.222;2023-02-15T08:58:34;1.90;99.90
20081;DHT22;10200;49.232;9.222;2023-02-15T09:01:00;1.90;99.90
20081;DHT22;10200;49.232;9.222;2023-02-15T09:03:27;2.00;99.90
20081;DHT22;10200;49.232;9.222;2023-02-15T09:06:00;2.00;99.90
20081;DHT22;10200;49.232;9.222;2023-02-15T09:08:27;2.00;99.90
20081;DHT22;10200;49.232;9.222;2023-02-15T09:10:53;2.00;99.90
20081;DHT22;10200;49.232;9.222;2023-02-15T09:13:19;2.00;99.90
20081;DHT22;10200;49.232;9.222;2023-02-15T09:15:46;2.00;99.90
20081;DHT22;10200;49.232;9.222;2023-02-15T09:18:11;2.00;99.90
20081;DHT22;10200;49.232;9.222;2023-02-15T09:20:42;2.00;99.90
20081;DHT22;10200;49.232;9.222;2023-02-15T09:23:08;2.00;99.90
20081;DHT22;10200;49.232;9.222;2023-02-15T09:25:34;2.00;99.90
20081;DHT22;10200;49.232;9.222;2023-02-15T09:27:59;2.00;99.90
20081;DHT22;10200;49.232;9.222;2023-02-15T09:30:25;2.00;99.90
20081;DHT22;10200;49.232;9.222;2023-02-15T09:32:51;2.00;99.90
20081;DHT22;10200;49.232;9.222;2023-02-15T09:35:16;2.00;99.90
20081;DHT22;10200;49.232;9.222;2023-02-15T09:37:42;2.00;99.90
20081;DHT22;10200;49.232;9.222;2023-02-15T09:40:08;2.10;99.90
20081;DHT22;10200;49.232;9.222;2023-02-15T09:45:49;2.10;99.90
20081;DHT22;10200;49.232;9.222;2023-02-15T09:48:39;2.20;99.90
20081;DHT22;10200;49.232;9.222;2023-02-15T09:56:36;2.20;99.90
20081;DHT22;10200;49.232;9.222;2023-02-15T10:12:44;2.60;99.90
20081;DHT22;10200;49.232;9.222;2023-02-15T10:20:39;2.80;99.90
20081;DHT22;10200;49.232;9.222;2023-02-15T10:23:27;2.90;99.90
20081;DHT22;10200;49.232;9.222;2023-02-15T10:31:49;3.10;99.90
20081;DHT22;10200;49.232;9.222;2023-02-15T10:34:39;3.20;99.90
20081;DHT22;10200;49.232;9.222;2023-02-15T10:43:14;3.30;99.90
20081;DHT22;10200;49.232;9.222;2023-02-15T10:45:56;3.30;99.90
20081;DHT22;10200;49.232;9.222;2023-02-15T11:07:21;3.70;99.90
20081;DHT22;10200;49.232;9.222;2023-02-15T11:10:00;3.70;99.90
20081;DHT22;10200;49.232;9.222;2023-02-15T11:12:28;3.80;99.90
20081;DHT22;10200;49.232;9.222;2023-02-15T11:15:15;3.90;99.90
20081;DHT22;10200;49.232;9.222;2023-02-15T11:17:48;4.00;99.90
20081;DHT22;10200;49.232;9.222;2023-02-15T11:20:24;4.10;99.90
20081;DHT22;10200;49.232;9.222;2023-02-15T11:22:52;4.10;99.90
20081;DHT22;10200;49.232;9.222;2023-02-15T11:25:30;4.10;99.90
20081;DHT22;10200;49.232;9.222;2023-02-15T11:27:56;4.20;99.90
20081;DHT22;10200;49.232;9.222;2023-02-15T11:30:25;4.30;99.90
20081;DHT22;10200;49.232;9.222;2023-02-15T11:32:58;4.20;99.90
20081;DHT22;10200;49.232;9.222;2023-02-15T11:36:22;4.30;99.90
20081;DHT22;10200;49.232;9.222;2023-02-15T11:38:24;4.50;99.90
20081;DHT22;10200;49.232;9.222;2023-02-15T11:41:05;4.60;99.90
20081;DHT22;10200;49.232;9.222;2023-02-15T11:46:11;4.70;99.90
20081;DHT22;10200;49.232;9.222;2023-02-15T11:48:37;4.80;99.90
20081;DHT22;10200;49.232;9.222;2023-02-15T11:51:04;4.70;99.90
20081;DHT22;10200;49.232;9.222;2023-02-15T11:53:35;4.80;99.90
20081;DHT22;10200;49.232;9.222;2023-02-15T11:56:01;4.80;99.90
20081;DHT22;10200;49.232;9.222;2023-02-15T12:01:02;4.90;99.90
20081;DHT22;10200;49.232;9.222;2023-02-15T12:06:34;5.10;99.90
20081;DHT22;10200;49.232;9.222;2023-02-15T12:11:50;5.40;99.90
20081;DHT22;10200;49.232;9.222;2023-02-15T12:14:16;5.40;99.90
20081;DHT22;10200;49.232;9.222;2023-02-15T12:16:49;5.50;99.90
20081;DHT22;10200;49.232;9.222;2023-02-15T12:21:52;5.60;99.90
20081;DHT22;10200;49.232;9.222;2023-02-15T12:24:23;5.50;99.90
20081;DHT22;10200;49.232;9.222;2023-02-15T12:27:04;5.40;99.90
20081;DHT22;10200;49.232;9.222;2023-02-15T12:29:39;5.50;99.90
20081;DHT22;10200;49.232;9.222;2023-02-15T12:32:06;5.50;99.90
20081;DHT22;10200;49.232;9.222;2023-02-15T12:34:39;5.50;99.90
20081;DHT22;10200;49.232;9.222;2023-02-15T12:37:22;5.50;99.90
20081;DHT22;10200;49.232;9.222;2023-02-15T12:39:57;5.50;99.90
20081;DHT22;10200;49.232;9.222;2023-02-15T12:42:24;5.40;99.90
20081;DHT22;10200;49.232;9.222;2023-02-15T12:45:04;5.30;99.90
20081;DHT22;10200;49.232;9.222;2023-02-15T12:47:44;5.20;99.90
20081;DHT22;10200;49.232;9.222;2023-02-15T12:50:15;5.20;99.90
20081;DHT22;10200;49.232;9.222;2023-02-15T12:52:48;5.10;99.90
20081;DHT22;10200;49.232;9.222;2023-02-15T12:55:26;5.10;99.90
20081;DHT22;10200;49.232;9.222;2023-02-15T12:58:15;5.20;99.90
20081;DHT22;10200;49.232;9.222;2023-02-15T13:00:42;5.20;99.90
20081;DHT22;10200;49.232;9.222;2023-02-15T13:03:19;5.30;99.90
20081;DHT22;10200;49.232;9.222;2023-02-15T13:05:49;5.30;99.90
20081;DHT22;10200;49.232;9.222;2023-02-15T13:08:18;5.40;99.90
20081;DHT22;10200;49.232;9.222;2023-02-15T13:13:36;5.50;99.90
20081;DHT22;10200;49.232;9.222;2023-02-15T13:16:09;5.50;99.90
20081;DHT22;10200;49.232;9.222;2023-02-15T13:18:46;5.50;99.90
20081;DHT22;10200;49.232;9.222;2023-02-15T13:21:24;5.60;99.90
20081;DHT22;10200;49.232;9.222;2023-02-15T13:23:55;5.60;99.90
20081;DHT22;10200;49.232;9.222;2023-02-15T13:26:23;5.60;99.90
20081;DHT22;10200;49.232;9.222;2023-02-15T13:28:58;5.70;99.90
20081;DHT22;10200;49.232;9.222;2023-02-15T13:31:27;5.70;99.90
20081;DHT22;10200;49.232;9.222;2023-02-15T13:33:58;5.70;99.90
20081;DHT22;10200;49.232;9.222;2023-02-15T13:47:57;6.10;99.90
20081;DHT22;10200;49.232;9.222;2023-02-15T14:00:56;6.40;99.90
20081;DHT22;10200;49.232;9.222;2023-02-15T14:06:34;6.50;99.90
20081;DHT22;10200;49.232;9.222;2023-02-15T14:12:37;6.70;99.90
20081;DHT22;10200;49.232;9.222;2023-02-15T14:15:09;6.80;99.90
20081;DHT22;10200;49.232;9.222;2023-02-15T14:28:59;7.10;99.90
20081;DHT22;10200;49.232;9.222;2023-02-15T14:31:34;7.10;99.90
20081;DHT22;10200;49.232;9.222;2023-02-15T14:34:00;7.10;99.90
20081;DHT22;10200;49.232;9.222;2023-02-15T14:36:27;7.20;99.90
20081;DHT22;10200;49.232;9.222;2023-02-15T14:42:07;7.20;99.90
20081;DHT22;10200;49.232;9.222;2023-02-15T14:44:46;7.30;99.90
20081;DHT22;10200;49.232;9.222;2023-02-15T14:47:21;7.30;99.90
20081;DHT22;10200;49.232;9.222;2023-02-15T14:49:47;7.30;99.90
20081;DHT22;10200;49.232;9.222;2023-02-15T14:52:13;7.30;99.90
20081;DHT22;10200;49.232;9.222;2023-02-15T14:59:40;7.40;99.90
20081;DHT22;10200;49.232;9.222;2023-02-15T15:07:37;7.50;99.90
20081;DHT22;10200;49.232;9.222;2023-02-15T15:16:23;7.50;99.90
20081;DHT22;10200;49.232;9.222;2023-02-15T15:18:46;7.60;99.90
20081;DHT22;10200;49.232;9.222;2023-02-15T15:24:45;7.60;99.90
20081;DHT22;10200;49.232;9.222;2023-02-15T15:30:07;7.70;99.90
20081;DHT22;10200;49.232;9.222;2023-02-15T15:41:43;7.60;99.90
20081;DHT22;10200;49.232;9.222;2023-02-15T15:47:31;7.60;99.90
20081;DHT22;10200;49.232;9.222;2023-02-15T15:49:59;7.70;99.90
20081;DHT22;10200;49.232;9.222;2023-02-15T15:52:26;7.70;99.90
20081;DHT22;10200;49.232;9.222;2023-02-15T15:55:01;7.60;99.90
20081;DHT22;10200;49.232;9.222;2023-02-15T15:57:34;7.60;99.90
20081;DHT22;10200;49.232;9.222;2023-02-15T16:00:00;7.60;99.90
20081;DHT22;10200;49.232;9.222;2023-02-15T16:02:27;7.50;99.90
20081;DHT22;10200;49.232;9.222;2023-02-15T16:04:52;7.40;99.90
20081;DHT22;10200;49.232;9.222;2023-02-15T16:10:03;7.40;99.90
20081;DHT22;10200;49.232;9.222;2023-02-15T16:12:31;7.40;99.90
20081;DHT22;10200;49.232;9.222;2023-02-15T16:14:58;7.40;99.90
20081;DHT22;10200;49.232;9.222;2023-02-15T16:17:28;7.30;99.90
20081;DHT22;10200;49.232;9.222;2023-02-15T16:20:14;7.30;99.90
20081;DHT22;10200;49.232;9.222;2023-02-15T16:22:40;7.20;99.90
20081;DHT22;10200;49.232;9.222;2023-02-15T16:27:47;7.00;99.90
20081;DHT22;10200;49.232;9.222;2023-02-15T16:30:35;7.00;99.90
20081;DHT22;10200;49.232;9.222;2023-02-15T16:33:19;7.00;99.90
20081;DHT22;10200;49.232;9.222;2023-02-15T16:35:59;7.00;99.90
20081;DHT22;10200;49.232;9.222;2023-02-15T16:41:15;6.90;99.90
20081;DHT22;10200;49.232;9.222;2023-02-15T16:43:43;6.80;99.90
20081;DHT22;10200;49.232;9.222;2023-02-15T16:46:14;6.80;99.90
20081;DHT22;10200;49.232;9.222;2023-02-15T16:48:46;6.70;99.90
20081;DHT22;10200;49.232;9.222;2023-02-15T16:51:28;6.60;99.90
20081;DHT22;10200;49.232;9.222;2023-02-15T16:53:56;6.50;99.90
20081;DHT22;10200;49.232;9.222;2023-02-15T16:56:31;6.50;99.90
20081;DHT22;10200;49.232;9.222;2023-02-15T16:58:58;6.40;99.90
20081;DHT22;10200;49.232;9.222;2023-02-15T17:01:27;6.30;99.90
20081;DHT22;10200;49.232;9.222;2023-02-15T17:04:12;6.20;99.90
20081;DHT22;10200;49.232;9.222;2023-02-15T17:06:38;6.10;99.90
20081;DHT22;10200;49.232;9.222;2023-02-15T17:09:06;6.10;99.90
20081;DHT22;10200;49.232;9.222;2023-02-15T17:11:42;6.00;99.90
20081;DHT22;10200;49.232;9.222;2023-02-15T17:16:49;5.80;99.90
20081;DHT22;10200;49.232;9.222;2023-02-15T17:21:48;5.70;99.90
20081;DHT22;10200;49.232;9.222;2023-02-15T17:24:33;5.60;99.90
20081;DHT22;10200;49.232;9.222;2023-02-15T17:27:04;5.60;99.90
20081;DHT22;10200;49.232;9.222;2023-02-15T17:29:39;5.50;99.90
20081;DHT22;10200;49.232;9.222;2023-02-15T17:32:17;5.50;99.90
20081;DHT22;10200;49.232;9.222;2023-02-15T17:35:19;5.40;99.90
20081;DHT22;10200;49.232;9.222;2023-02-15T17:37:49;5.30;99.90
20081;DHT22;10200;49.232;9.222;2023-02-15T17:40:29;5.40;99.90
20081;DHT22;10200;49.232;9.222;2023-02-15T17:42:55;5.40;99.90
20081;DHT22;10200;49.232;9.222;2023-02-15T17:45:22;5.40;99.90
20081;DHT22;10200;49.232;9.222;2023-02-15T17:47:50;5.30;99.90
20081;DHT22;10200;49.232;9.222;2023-02-15T17:50:23;5.20;99.90
20081;DHT22;10200;49.232;9.222;2023-02-15T17:52:50;5.10;99.90
20081;DHT22;10200;49.232;9.222;2023-02-15T17:55:19;5.00;99.90
20081;DHT22;10200;49.232;9.222;2023-02-15T17:58:02;4.90;99.90
20081;DHT22;10200;49.232;9.222;2023-02-15T18:00:29;4.90;99.90
20081;DHT22;10200;49.232;9.222;2023-02-15T18:03:13;4.80;99.90
20081;DHT22;10200;49.232;9.222;2023-02-15T18:05:57;4.80;99.90
20081;DHT22;10200;49.232;9.222;2023-02-15T18:08:42;4.70;99.90
20081;DHT22;10200;49.232;9.222;2023-02-15T18:11:26;4.70;99.90
20081;DHT22;10200;49.232;9.222;2023-02-15T18:14:05;4.60;99.90
20081;DHT22;10200;49.232;9.222;2023-02-15T18:16:37;4.50;99.90
20081;DHT22;10200;49.232;9.222;2023-02-15T18:19:06;4.40;99.90
20081;DHT22;10200;49.232;9.222;2023-02-15T18:21:34;4.40;99.90
20081;DHT22;10200;49.232;9.222;2023-02-15T18:24:00;4.40;99.90
20081;DHT22;10200;49.232;9.222;2023-02-15T18:26:26;4.30;99.90
20081;DHT22;10200;49.232;9.222;2023-02-15T18:28:52;4.20;99.90
20081;DHT22;10200;49.232;9.222;2023-02-15T18:31:18;4.10;99.90
20081;DHT22;10200;49.232;9.222;2023-02-15T18:33:51;4.10;99.90
20081;DHT22;10200;49.232;9.222;2023-02-15T18:36:29;4.10;99.90
20081;DHT22;10200;49.232;9.222;2023-02-15T18:38:57;4.00;99.90
20081;DHT22;10200;49.232;9.222;2023-02-15T18:41:24;4.00;99.90
20081;DHT22;10200;49.232;9.222;2023-02-15T18:43:50;4.00;99.90
20081;DHT22;10200;49.232;9.222;2023-02-15T18:46:16;4.00;99.90
20081;DHT22;10200;49.232;9.222;2023-02-15T18:48:42;3.90;99.90
20081;DHT22;10200;49.232;9.222;2023-02-15T18:51:19;3.80;99.90
20081;DHT22;10200;49.232;9.222;2023-02-15T18:53:46;3.80;99.90
20081;DHT22;10200;49.232;9.222;2023-02-15T18:56:17;3.80;99.90
20081;DHT22;10200;49.232;9.222;2023-02-15T18:58:44;3.70;99.90
20081;DHT22;10200;49.232;9.222;2023-02-15T19:01:17;3.60;99.90
20081;DHT22;10200;49.232;9.222;2023-02-15T19:03:48;3.60;99.90
20081;DHT22;10200;49.232;9.222;2023-02-15T19:06:16;3.50;99.90
20081;DHT22;10200;49.232;9.222;2023-02-15T19:08:44;3.50;99.90
20081;DHT22;10200;49.232;9.222;2023-02-15T19:11:14;3.40;99.90
20081;DHT22;10200;49.232;9.222;2023-02-15T19:13:40;3.40;99.90
20081;DHT22;10200;49.232;9.222;2023-02-15T19:16:07;3.40;99.90
20081;DHT22;10200;49.232;9.222;2023-02-15T19:18:33;3.40;99.90
20081;DHT22;10200;49.232;9.222;2023-02-15T19:20:58;3.30;99.90
20081;DHT22;10200;49.232;9.222;2023-02-15T19:23:24;3.30;99.90
20081;DHT22;10200;49.232;9.222;2023-02-15T19:25:52;3.30;99.90
20081;DHT22;10200;49.232;9.222;2023-02-15T19:28:22;3.20;99.90
20081;DHT22;10200;49.232;9.222;2023-02-15T19:30:50;3.20;99.90
20081;DHT22;10200;49.232;9.222;2023-02-15T19:33:18;3.10;99.90
20081;DHT22;10200;49.232;9.222;2023-02-15T19:35:46;3.10;99.90
20081;DHT22;10200;49.232;9.222;2023-02-15T19:38:19;3.10;99.90
20081;DHT22;10200;49.232;9.222;2023-02-15T19:40:46;3.00;99.90
20081;DHT22;10200;49.232;9.222;2023-02-15T19:43:17;3.00;99.90